• Join FlightAware (Why Join?)
  • Login
  • US Flag 
03:45PM EST


 

Airport Tracker/Info


-or-


 

Live Flight TrackerFlight Track Log ✈ AAR8735 ✈ 29 Sep 2013 ✈ RKSS / GMP - RKJY / RSU

Flight Track Log - Related Links

Times and Time Zones

All times are in EDT time to prevent confusion due to time zone crossing. See the AAR8735 flight status page for this flight to view local times or setup timezone preferences in your user account.

Time Position Orientation Groundspeed Altitude Reporting Facility
EDT Latitude Longitude Course Direction KTS MPH feet Rate Location/Type
02:50AM 37.4920 126.8700 159° South 221 254 4,600  Level FlightAware
02:50AM 37.4700 126.8780 164° South 257 296 5,400 1,740 Climbing FlightAware
02:50AM 37.4510 126.8860 162° South 269 310 5,800 720 Climbing FlightAware
02:51AM 37.4240 126.8960 164° South 269 310 5,900 360 Climbing FlightAware
02:51AM 37.4110 126.8980 173° South 261 300 6,000 1,560 Climbing FlightAware
02:51AM 37.3850 126.8990 178° South 273 314 6,700 3,300 Climbing FlightAware
02:52AM 37.3590 126.9000 178° South 274 315 8,200 4,080 Climbing FlightAware
02:52AM 37.3410 126.9010 177° South 278 320 9,100 4,080 Climbing FlightAware
02:52AM 37.2960 126.9030 178° South 259 298 11,600 3,720 Climbing FlightAware
02:53AM 37.2540 126.9050 178° South 273 314 13,500 2,760 Climbing FlightAware
02:54AM 37.2000 126.9070 178° South 281 323 15,200 1,740 Climbing FlightAware
02:54AM 37.1370 126.9100 178° South 321 369 16,000 660 Climbing FlightAware
02:55AM 37.0950 126.9120 178° South 324 373 16,000  Level FlightAware
02:56AM 37.0370 126.9150 178° South 324 373 16,000  Level FlightAware
02:56AM 36.9920 126.9180 177° South 324 373 16,000  Level FlightAware
02:57AM 36.9460 126.9210 177° South 324 373 16,000  Level FlightAware
02:57AM 36.8990 126.9250 176° South 324 373 16,000  Level FlightAware
02:58AM 36.8530 126.9270 178° South 324 373 16,000  Level FlightAware
02:59AM 36.8070 126.9300 177° South 324 373 16,000  Level FlightAware
03:01AM 36.6697 126.9790 164° South  Level Estimated
03:02AM 36.5947 127.0057 164° South  Level Estimated
03:03AM 36.5198 127.0323 164° South  Level Estimated
03:04AM 36.4449 127.0588 164° South  Level Estimated
03:05AM 36.3700 127.0854 164° South  Level Estimated
03:06AM 36.2950 127.1118 164° South  Level Estimated
03:07AM 36.2201 127.1382 164° South  Level Estimated
03:08AM 36.1451 127.1646 164° South  Level Estimated
03:09AM 36.0702 127.1908 164° South  Level Estimated
03:10AM 35.9952 127.2171 164° South  Level Estimated
03:11AM 35.9202 127.2433 164° South  Level Estimated
03:12AM 35.8453 127.2694 164° South  Level Estimated
03:13AM 35.7703 127.2955 164° South  Level Estimated
03:14AM 35.6953 127.3216 164° South  Level Estimated
03:15AM 35.6203 127.3476 164° South  Level Estimated
03:16AM 35.5453 127.3736 164° South  Level Estimated
03:17AM 35.4703 127.3995 164° South  Level Estimated
03:18AM 35.3953 127.4253 164° South  Level Estimated
03:19AM 35.3203 127.4512 164° South  Level Estimated
03:20AM 35.2453 127.4769 164° South  Level Estimated
03:21AM 35.1703 127.5026 164° South  Level Estimated
03:22AM 35.0952 127.5283 164° South  Level Estimated
03:23AM 35.0202 127.5539 164° South  Level Estimated
03:24AM 34.9452 127.5795 164° South  Level Estimated
03:25AM 34.8701 127.6050 164° South  Level Estimated
03:26AM 34.8398 127.6153 164° South  Level Estimated
03:27AM 34.8398 127.6153 180° South  Level Estimated
03:28AM 34.8398 127.6153 180° South  Level Estimated
03:29AM 34.8398 127.6153 180° South  Level Estimated
03:30AM 34.8398 127.6153 180° South  Level Estimated
03:31AM 34.8398 127.6153 180° South  Level Estimated
03:32AM 34.8398 127.6153 180° South  Level Estimated
03:33AM 34.8398 127.6153 180° South  Level Estimated